Time;durP1;ratioP1;P1;durP2;ratioP2;P2;SDS_P1;SDS_P2;PMS_P1;PMS_P2;Temp;Humidity;BMP_temperature;BMP_pressure;BME280_temperature;BME280_humidity;BME280_pressure;Samples;Min_cycle;Max_cycle;Signal;HPM_P1;HPM_P2
2023/08/11 00:00:04;;;;;;;13.13;9.45;;;14.50;99.90;;;;;;5055864;28;20036;-57
2023/08/11 00:02:40;;;;;;;11.93;8.95;;;14.50;99.90;;;;;;5055740;28;20037;-57
2023/08/11 00:05:08;;;;;;;13.75;10.40;;;14.50;99.90;;;;;;5055903;28;20037;-57
2023/08/11 00:07:34;;;;;;;16.83;10.02;;;14.40;99.90;;;;;;5055840;28;20489;-57
2023/08/11 00:10:00;;;;;;;15.57;9.82;;;14.50;99.90;;;;;;5055836;28;20028;-57
2023/08/11 00:12:26;;;;;;;20.13;10.43;;;14.50;99.90;;;;;;5071419;28;20028;-57
2023/08/11 00:14:52;;;;;;;14.57;10.15;;;14.50;99.90;;;;;;5075574;28;20036;-57
2023/08/11 00:17:19;;;;;;;12.82;9.43;;;14.40;99.90;;;;;;5075591;28;20090;-57
2023/08/11 00:19:44;;;;;;;14.40;9.57;;;14.40;99.90;;;;;;5075409;28;20039;-57
2023/08/11 00:22:10;;;;;;;14.30;9.77;;;14.40;99.90;;;;;;5075350;28;20458;-57
2023/08/11 00:24:36;;;;;;;12.27;9.75;;;14.40;99.90;;;;;;5075285;28;20426;-57
2023/08/11 00:27:03;;;;;;;13.65;9.15;;;14.40;99.90;;;;;;5075644;28;20025;-57
2023/08/11 00:29:31;;;;;;;13.50;9.85;;;14.40;99.90;;;;;;5074100;28;20025;-57
2023/08/11 00:31:56;;;;;;;13.00;9.27;;;14.40;99.90;;;;;;5073977;28;20039;-58
2023/08/11 00:34:23;;;;;;;13.77;9.68;;;14.40;99.90;;;;;;5075334;28;20033;-57
2023/08/11 00:36:49;;;;;;;14.23;10.65;;;14.40;99.90;;;;;;5075142;28;20085;-57
2023/08/11 00:39:15;;;;;;;15.00;10.02;;;14.40;99.90;;;;;;5075062;28;20435;-57
2023/08/11 00:41:41;;;;;;;15.27;9.85;;;14.40;99.90;;;;;;5069851;28;20029;-57
2023/08/11 00:44:07;;;;;;;13.95;10.10;;;14.40;99.90;;;;;;5054996;28;20023;-57
2023/08/11 00:46:34;;;;;;;13.68;10.05;;;14.30;99.90;;;;;;5055126;28;20025;-57
2023/08/11 00:49:00;;;;;;;12.98;9.80;;;14.40;99.90;;;;;;5053757;28;20029;-57
2023/08/11 00:51:27;;;;;;;14.15;9.73;;;14.40;99.90;;;;;;5053698;28;20029;-57
2023/08/11 00:53:53;;;;;;;17.15;10.48;;;14.30;99.90;;;;;;5053604;28;20513;-57
2023/08/11 00:56:21;;;;;;;12.93;10.00;;;14.20;99.90;;;;;;5054902;28;20482;-57
2023/08/11 00:58:49;;;;;;;15.68;10.68;;;14.10;99.90;;;;;;5054834;28;20082;-57
2023/08/11 01:01:15;;;;;;;15.27;10.48;;;14.10;99.90;;;;;;5036888;28;20057;-57
2023/08/11 01:03:45;;;;;;;14.50;9.82;;;14.20;99.90;;;;;;5053595;28;20024;-57
2023/08/11 01:06:33;;;;;;;13.77;9.38;;;14.20;99.90;;;;;;5053501;28;20025;-57
2023/08/11 01:09:25;;;;;;;12.05;9.05;;;14.10;99.90;;;;;;5054824;28;20083;-57
2023/08/11 01:12:07;;;;;;;14.73;9.52;;;14.10;99.90;;;;;;5064586;28;20038;-57
2023/08/11 01:14:41;;;;;;;14.48;9.55;;;14.20;99.90;;;;;;5074469;28;20025;-57
2023/08/11 01:17:12;;;;;;;12.90;9.82;;;14.20;99.90;;;;;;5074657;28;20374;-57
2023/08/11 01:19:39;;;;;;;13.65;9.63;;;14.30;99.90;;;;;;5074431;28;20083;-58
2023/08/11 01:22:13;;;;;;;13.60;10.30;;;14.30;99.90;;;;;;5074638;28;20032;-57
2023/08/11 01:24:40;;;;;;;16.10;9.88;;;14.30;99.90;;;;;;5073121;28;20082;-57
2023/08/11 01:27:06;;;;;;;14.55;10.27;;;14.30;99.90;;;;;;5074272;28;20175;-57
2023/08/11 01:29:32;;;;;;;16.67;10.45;;;14.30;99.90;;;;;;5072860;28;20032;-57
2023/08/11 01:31:58;;;;;;;13.93;9.27;;;14.40;99.90;;;;;;5074469;28;20070;-58
2023/08/11 01:34:24;;;;;;;13.45;10.15;;;14.30;99.90;;;;;;5073098;28;20072;-57
2023/08/11 01:36:57;;;;;;;12.52;9.98;;;14.40;99.90;;;;;;5073092;28;20067;-57
2023/08/11 01:39:23;;;;;;;14.82;9.55;;;14.40;99.90;;;;;;5072963;28;20535;-58
2023/08/11 01:41:49;;;;;;;14.40;10.55;;;14.40;99.90;;;;;;5068000;28;20025;-57
2023/08/11 01:44:16;;;;;;;15.63;9.68;;;14.50;99.90;;;;;;5054392;28;20040;-57
2023/08/11 01:46:42;;;;;;;13.30;10.32;;;14.50;99.90;;;;;;5053113;28;20503;-57
2023/08/11 01:49:12;;;;;;;12.52;9.88;;;14.40;99.90;;;;;;5054104;28;20056;-58
2023/08/11 01:51:39;;;;;;;13.18;9.77;;;14.40;99.90;;;;;;5054234;28;20033;-58
2023/08/11 01:54:07;;;;;;;14.45;10.25;;;14.50;99.90;;;;;;5054010;28;20078;-57
2023/08/11 01:56:34;;;;;;;15.35;10.13;;;14.40;99.90;;;;;;5054251;28;20385;-58
2023/08/11 01:59:04;;;;;;;14.02;9.25;;;14.40;99.90;;;;;;5052959;28;20037;-57
2023/08/11 02:01:30;;;;;;;16.75;10.23;;;14.40;99.90;;;;;;5052655;28;20100;-57
2023/08/11 02:03:57;;;;;;;14.95;10.05;;;14.40;99.90;;;;;;5054092;28;20021;-57
2023/08/11 02:06:23;;;;;;;16.15;10.25;;;14.30;99.90;;;;;;5054200;28;20033;-57
2023/08/11 02:08:49;;;;;;;12.55;9.55;;;14.40;99.90;;;;;;5052683;28;20032;-57
2023/08/11 02:11:15;;;;;;;13.32;9.95;;;14.40;99.90;;;;;;5058974;28;20033;-57
2023/08/11 02:13:41;;;;;;;13.23;9.43;;;14.60;99.90;;;;;;5072770;28;20129;-58
2023/08/11 02:16:07;;;;;;;14.35;9.07;;;14.50;99.90;;;;;;5072596;28;20040;-57
2023/08/11 02:18:33;;;;;;;11.68;8.73;;;14.40;99.90;;;;;;5072720;28;20039;-57
2023/08/11 02:20:59;;;;;;;12.00;8.63;;;14.40;99.90;;;;;;5073824;28;20561;-58
2023/08/11 02:23:25;;;;;;;12.75;9.20;;;14.30;99.90;;;;;;5074023;28;20068;-58
2023/08/11 02:25:51;;;;;;;11.35;8.68;;;14.40;99.90;;;;;;5073858;28;20025;-58
2023/08/11 02:28:16;;;;;;;15.80;9.63;;;14.30;99.90;;;;;;5073906;28;20103;-58
2023/08/11 02:30:42;;;;;;;15.05;9.77;;;14.30;99.90;;;;;;5072592;28;20035;-57
2023/08/11 02:33:09;;;;;;;14.00;9.88;;;14.30;99.90;;;;;;5072695;28;20028;-58
2023/08/11 02:35:35;;;;;;;13.63;8.93;;;14.30;99.90;;;;;;5072479;28;20025;-58
2023/08/11 02:38:01;;;;;;;11.00;8.60;;;14.40;99.90;;;;;;5073632;28;20513;-58
2023/08/11 02:40:27;;;;;;;11.82;9.07;;;14.50;99.90;;;;;;5073210;28;20481;-58
2023/08/11 02:42:56;;;;;;;13.10;8.70;;;14.40;99.90;;;;;;5062242;28;20025;-57
2023/08/11 02:45:23;;;;;;;13.18;9.50;;;14.30;99.90;;;;;;5057275;28;20040;-57
2023/08/11 02:47:51;;;;;;;14.32;9.05;;;14.20;99.90;;;;;;5056054;28;20110;-57
2023/08/11 02:50:17;;;;;;;16.67;8.77;;;14.20;99.90;;;;;;5055764;28;20025;-57
2023/08/11 02:52:43;;;;;;;13.07;9.57;;;14.10;99.90;;;;;;5057343;28;20032;-57
2023/08/11 02:55:11;;;;;;;16.27;8.68;;;14.10;99.90;;;;;;5055998;28;20029;-58
2023/08/11 02:57:37;;;;;;;13.07;9.60;;;14.00;99.90;;;;;;5057085;28;20126;-58
2023/08/11 03:00:14;;;;;;;13.75;9.55;;;13.90;99.90;;;;;;5056912;28;20053;-57
2023/08/11 03:02:41;;;;;;;12.52;9.40;;;13.90;99.90;;;;;;5057027;28;20056;-58
2023/08/11 03:05:09;;;;;;;15.50;9.63;;;13.80;99.90;;;;;;5056797;28;20052;-57
2023/08/11 03:07:38;;;;;;;11.25;8.77;;;13.80;99.90;;;;;;5055675;28;20032;-57
2023/08/11 03:10:05;;;;;;;13.82;8.95;;;13.60;99.90;;;;;;5055643;28;20500;-57
2023/08/11 03:12:32;;;;;;;14.05;9.25;;;13.60;99.90;;;;;;5072114;28;20025;-57
2023/08/11 03:14:58;;;;;;;16.50;9.18;;;13.70;99.90;;;;;;5075526;28;20028;-57
2023/08/11 03:17:24;;;;;;;14.35;9.70;;;13.60;99.90;;;;;;5075499;28;20425;-57
2023/08/11 03:19:51;;;;;;;15.88;10.10;;;13.60;99.90;;;;;;5075274;28;20048;-57
2023/08/11 03:22:19;;;;;;;12.68;9.32;;;13.60;99.90;;;;;;5075412;28;20024;-58
2023/08/11 03:24:46;;;;;;;14.15;9.60;;;13.60;99.90;;;;;;5075327;28;20051;-57
2023/08/11 03:27:12;;;;;;;11.82;9.45;;;13.60;99.90;;;;;;5076610;28;20060;-57
2023/08/11 03:29:39;;;;;;;12.32;9.15;;;13.40;99.90;;;;;;5076545;28;20086;-57
2023/08/11 03:32:05;;;;;;;15.07;9.90;;;13.40;99.90;;;;;;5075248;28;20332;-57
2023/08/11 03:34:31;;;;;;;12.35;9.18;;;13.50;99.90;;;;;;5075247;28;20032;-57
2023/08/11 03:36:58;;;;;;;15.30;9.48;;;13.50;99.90;;;;;;5075143;28;20086;-57
2023/08/11 03:39:23;;;;;;;14.20;9.82;;;13.50;99.90;;;;;;5076426;28;20032;-57
2023/08/11 03:41:51;;;;;;;15.63;9.98;;;13.50;99.90;;;;;;5070065;28;20024;-57
2023/08/11 03:44:18;;;;;;;14.82;10.07;;;13.50;99.90;;;;;;5056192;28;20459;-57
2023/08/11 03:46:45;;;;;;;16.48;9.65;;;13.50;99.90;;;;;;5054890;28;20021;-57
2023/08/11 03:49:11;;;;;;;15.52;9.95;;;13.50;99.90;;;;;;5054834;28;20333;-57
2023/08/11 03:51:38;;;;;;;14.68;10.82;;;13.40;99.90;;;;;;5054456;28;20083;-57
2023/08/11 03:54:04;;;;;;;15.73;10.60;;;13.50;99.90;;;;;;5056000;28;20032;-57
2023/08/11 03:56:34;;;;;;;15.90;11.38;;;13.50;99.90;;;;;;5054831;28;20111;-57
2023/08/11 03:59:01;;;;;;;14.25;10.20;;;13.60;99.90;;;;;;5054726;28;20584;-57
2023/08/11 04:01:27;;;;;;;18.58;11.77;;;13.60;99.90;;;;;;5054294;28;20115;-57
2023/08/11 04:03:53;;;;;;;19.85;12.00;;;13.50;99.90;;;;;;5055895;28;20029;-57
2023/08/11 04:06:19;;;;;;;17.90;12.20;;;13.50;99.90;;;;;;5054645;28;20029;-57
2023/08/11 04:08:45;;;;;;;15.13;10.73;;;13.60;99.90;;;;;;5055730;28;20382;-57
2023/08/11 04:11:11;;;;;;;20.13;12.35;;;13.60;99.90;;;;;;5061324;28;20029;-57
2023/08/11 04:13:37;;;;;;;13.95;11.20;;;13.60;99.90;;;;;;5074241;28;20056;-57
2023/08/11 04:16:03;;;;;;;16.20;11.13;;;13.60;99.90;;;;;;5074246;28;20032;-57
2023/08/11 04:18:29;;;;;;;16.52;11.57;;;13.60;99.90;;;;;;5074269;28;20041;-57
2023/08/11 04:20:55;;;;;;;18.45;12.43;;;13.60;99.90;;;;;;5075445;28;20054;-57
2023/08/11 04:23:21;;;;;;;17.48;11.50;;;13.70;99.90;;;;;;5075358;28;20029;-57
2023/08/11 04:25:47;;;;;;;16.15;11.07;;;13.70;99.90;;;;;;5074115;28;20135;-57
2023/08/11 04:28:14;;;;;;;16.50;9.93;;;13.70;99.90;;;;;;5074137;28;20025;-57
2023/08/11 04:30:40;;;;;;;17.67;9.55;;;13.60;99.90;;;;;;5073945;28;20040;-58
2023/08/11 04:33:09;;;;;;;13.10;9.68;;;13.70;99.90;;;;;;5073969;28;20557;-57
2023/08/11 04:35:35;;;;;;;20.58;15.95;;;13.70;99.90;;;;;;5074008;28;20094;-57
2023/08/11 04:38:02;;;;;;;23.83;20.05;;;13.80;99.90;;;;;;5073662;28;20024;-57
2023/08/11 04:40:31;;;;;;;41.10;36.47;;;13.70;99.90;;;;;;5073993;28;20078;-58
2023/08/11 04:42:57;;;;;;;48.05;42.33;;;13.70;99.90;;;;;;5057915;28;20482;-57
2023/08/11 04:45:29;;;;;;;43.13;38.38;;;13.70;99.90;;;;;;5053692;28;20036;-58
2023/08/11 04:47:56;;;;;;;41.80;33.60;;;13.80;99.90;;;;;;5053721;28;20029;-57
2023/08/11 04:50:23;;;;;;;41.00;33.45;;;13.80;99.90;;;;;;5053471;28;20071;-57
2023/08/11 04:52:54;;;;;;;19.17;16.00;;;13.90;99.90;;;;;;5053688;28;20044;-57
2023/08/11 04:55:20;;;;;;;21.23;14.57;;;14.00;99.90;;;;;;5053590;28;20033;-57
2023/08/11 04:57:47;;;;;;;18.60;14.82;;;14.10;99.90;;;;;;5053563;28;20068;-58
2023/08/11 05:00:17;;;;;;;17.27;12.20;;;14.20;99.90;;;;;;5053521;28;20072;-57
2023/08/11 05:02:44;;;;;;;17.95;11.88;;;14.30;99.90;;;;;;5054436;28;20065;-57
2023/08/11 05:05:11;;;;;;;16.90;10.50;;;14.30;99.90;;;;;;5054536;28;20029;-57
2023/08/11 05:07:37;;;;;;;16.05;10.05;;;14.40;99.90;;;;;;5054749;28;20455;-57
2023/08/11 05:10:04;;;;;;;12.82;10.50;;;14.50;99.90;;;;;;5054667;28;20087;-57
2023/08/11 05:12:33;;;;;;;17.05;9.93;;;14.60;99.90;;;;;;5071110;28;20031;-57
2023/08/11 05:15:00;;;;;;;18.98;10.68;;;14.70;99.90;;;;;;5074621;28;20073;-57
2023/08/11 05:17:25;;;;;;;17.50;10.82;;;14.90;99.90;;;;;;5074442;28;20035;-57
2023/08/11 05:19:51;;;;;;;16.15;9.35;;;15.00;99.90;;;;;;5074477;28;20049;-57
2023/08/11 05:22:17;;;;;;;23.17;12.10;;;15.00;99.90;;;;;;5075239;28;20064;-57
2023/08/11 05:24:45;;;;;;;28.08;12.77;;;15.20;99.90;;;;;;5071976;28;20405;-57
2023/08/11 05:27:11;;;;;;;30.38;11.95;;;15.30;99.90;;;;;;5074085;28;20039;-57
2023/08/11 05:29:37;;;;;;;24.88;11.65;;;15.40;99.90;;;;;;5074385;28;20094;-57
2023/08/11 05:32:03;;;;;;;28.15;15.30;;;15.50;99.90;;;;;;5069776;28;20028;-58
2023/08/11 05:34:29;;;;;;;25.38;14.27;;;15.70;99.90;;;;;;5054136;28;20036;-58
2023/08/11 05:36:55;;;;;;;36.95;20.48;;;15.90;99.90;;;;;;5054206;28;20029;-57
2023/08/11 05:39:21;;;;;;;40.15;22.90;;;16.00;99.90;;;;;;5052796;28;20090;-57
2023/08/11 05:41:47;;;;;;;37.55;21.48;;;16.10;99.90;;;;;;5053722;28;20057;-58
2023/08/11 05:44:13;;;;;;;34.58;21.23;;;16.10;99.90;;;;;;5054171;28;20025;-57
2023/08/11 05:46:39;;;;;;;39.92;21.92;;;16.30;99.90;;;;;;5054035;28;20021;-58
2023/08/11 05:49:04;;;;;;;35.08;20.10;;;16.20;99.90;;;;;;5053920;28;20025;-57
2023/08/11 05:51:30;;;;;;;36.58;21.95;;;16.40;99.90;;;;;;5054058;28;20036;-57
2023/08/11 05:53:56;;;;;;;40.97;22.20;;;16.50;99.90;;;;;;5053811;28;20060;-58
2023/08/11 05:56:22;;;;;;;40.10;22.55;;;16.60;99.90;;;;;;5053882;28;20422;-58
2023/08/11 05:58:48;;;;;;;34.05;20.52;;;16.70;99.90;;;;;;5053792;28;20024;-58
2023/08/11 06:01:14;;;;;;;39.83;21.33;;;16.70;99.90;;;;;;5053616;28;20489;-58
2023/08/11 06:03:40;;;;;;;41.53;19.73;;;16.80;99.90;;;;;;5052620;28;20051;-58
2023/08/11 06:06:05;;;;;;;41.95;22.83;;;16.90;99.90;;;;;;5053900;28;20033;-58
2023/08/11 06:08:32;;;;;;;36.88;22.95;;;17.00;99.90;;;;;;5054029;28;20071;-58
2023/08/11 06:10:58;;;;;;;43.58;26.10;;;17.20;99.90;;;;;;5057626;28;20377;-58
2023/08/11 06:13:24;;;;;;;52.53;25.30;;;17.30;99.90;;;;;;5073777;28;20060;-58
2023/08/11 06:15:50;;;;;;;41.47;25.17;;;17.40;99.90;;;;;;5075168;28;20054;-58
2023/08/11 06:18:17;;;;;;;48.80;27.20;;;17.50;99.90;;;;;;5076268;28;20443;-58
2023/08/11 06:20:44;;;;;;;59.67;30.65;;;17.70;99.90;;;;;;5061753;28;20049;-58
2023/08/11 06:23:11;;;;;;;63.55;30.25;;;17.80;99.90;;;;;;5057500;28;20025;-57
2023/08/11 06:25:38;;;;;;;61.80;30.40;;;17.90;99.90;;;;;;5057284;28;20036;-57
2023/08/11 06:28:04;;;;;;;55.75;29.70;;;17.80;99.90;;;;;;5057374;28;20511;-58
2023/08/11 06:30:30;;;;;;;50.88;28.90;;;18.00;99.90;;;;;;5057402;28;20056;-58
2023/08/11 06:32:59;;;;;;;74.70;31.98;;;18.20;99.90;;;;;;5057384;28;20031;-58
2023/08/11 06:35:25;;;;;;;56.15;30.38;;;18.40;99.90;;;;;;5056221;28;20037;-58
2023/08/11 06:37:51;;;;;;;62.28;30.40;;;18.50;99.90;;;;;;5057225;28;20536;-58
2023/08/11 06:40:17;;;;;;;64.05;30.75;;;18.70;99.90;;;;;;5057160;28;20033;-58
2023/08/11 06:42:43;;;;;;;66.60;32.63;;;18.80;99.90;;;;;;5056638;28;20310;-58
2023/08/11 06:45:12;;;;;;;74.00;34.47;;;18.90;99.90;;;;;;5055706;28;20036;-58
2023/08/11 06:47:38;;;;;;;75.85;37.67;;;19.10;99.90;;;;;;5055204;28;20025;-58
2023/08/11 06:50:05;;;;;;;91.50;36.83;;;19.30;99.90;;;;;;5056749;28;20029;-58
2023/08/11 06:52:31;;;;;;;74.93;35.63;;;19.60;99.90;;;;;;5057349;28;20025;-58
2023/08/11 06:55:00;;;;;;;83.85;37.75;;;19.60;99.90;;;;;;5056969;28;20033;-58
2023/08/11 06:57:26;;;;;;;78.63;36.55;;;19.90;99.90;;;;;;5056783;28;20033;-58
2023/08/11 06:59:52;;;;;;;70.53;36.10;;;20.10;99.90;;;;;;5056763;28;20045;-58
2023/08/11 07:02:18;;;;;;;62.25;30.35;;;20.20;99.90;;;;;;5056634;28;20029;-58
2023/08/11 07:04:44;;;;;;;66.00;31.27;;;20.30;99.90;;;;;;5056753;28;20029;-58
2023/08/11 07:07:10;;;;;;;75.53;33.70;;;20.50;99.90;;;;;;5056604;28;20234;-58
2023/08/11 07:09:36;;;;;;;69.07;32.65;;;20.80;99.90;;;;;;5056734;28;20498;-58
2023/08/11 07:12:02;;;;;;;60.88;30.23;;;20.90;99.90;;;;;;5069182;28;20029;-58
2023/08/11 07:14:28;;;;;;;55.50;26.98;;;21.30;99.90;;;;;;5076598;28;20035;-58
2023/08/11 07:16:54;;;;;;;42.38;21.90;;;21.50;99.90;;;;;;5076767;28;20029;-58
2023/08/11 07:19:20;;;;;;;34.85;20.25;;;21.30;99.20;;;;;;5075477;28;20044;-58
2023/08/11 07:21:46;;;;;;;49.50;25.58;;;21.20;98.40;;;;;;5076638;28;20039;-58
2023/08/11 07:24:12;;;;;;;47.95;24.20;;;21.70;99.70;;;;;;5076180;28;20031;-58
2023/08/11 07:26:38;;;;;;;41.05;21.25;;;22.10;99.40;;;;;;5075723;28;20025;-58
2023/08/11 07:29:04;;;;;;;37.72;19.90;;;22.60;98.10;;;;;;5076354;28;20466;-58
2023/08/11 07:31:30;;;;;;;30.58;16.70;;;22.90;96.50;;;;;;5076308;28;20032;-58
2023/08/11 07:33:56;;;;;;;37.50;19.55;;;22.80;93.20;;;;;;5076216;28;20094;-58
2023/08/11 07:36:21;;;;;;;28.90;14.50;;;23.30;92.80;;;;;;5076223;28;20385;-58
2023/08/11 07:38:47;;;;;;;27.52;14.75;;;23.30;84.80;;;;;;5062670;28;20037;-58
2023/08/11 07:41:13;;;;;;;40.00;18.40;;;23.50;85.90;;;;;;5055826;28;20033;-58
2023/08/11 07:43:39;;;;;;;35.60;19.75;;;24.00;89.50;;;;;;5055693;28;20370;-58
2023/08/11 07:46:06;;;;;;;41.67;20.08;;;24.50;88.50;;;;;;5055461;28;20021;-58
2023/08/11 07:48:32;;;;;;;44.28;21.40;;;24.60;86.40;;;;;;5056009;28;20071;-58
2023/08/11 07:50:57;;;;;;;43.50;20.67;;;24.40;83.60;;;;;;5055778;28;20056;-58
2023/08/11 07:53:24;;;;;;;31.95;17.90;;;24.80;84.90;;;;;;5055816;28;20025;-58
2023/08/11 07:55:50;;;;;;;29.75;12.00;;;25.10;81.10;;;;;;5055377;28;20017;-58
2023/08/11 07:58:20;;;;;;;18.58;8.63;;;25.20;70.30;;;;;;5055625;28;20039;-58
2023/08/11 08:00:46;;;;;;;16.70;8.15;;;25.50;69.40;;;;;;5055106;28;20029;-58
2023/08/11 08:03:12;;;;;;;17.42;10.15;;;25.70;65.30;;;;;;5055807;28;20079;-58
2023/08/11 08:05:38;;;;;;;16.00;9.57;;;25.90;64.00;;;;;;5056040;28;20108;-58
2023/08/11 08:08:04;;;;;;;19.70;11.02;;;26.10;62.60;;;;;;5056191;28;20077;-58
2023/08/11 08:10:31;;;;;;;14.52;9.63;;;26.10;63.50;;;;;;5056438;28;20035;-58
2023/08/11 08:12:57;;;;;;;16.00;9.60;;;26.10;62.90;;;;;;5055535;28;20029;-58
2023/08/11 08:15:24;;;;;;;19.25;10.98;;;26.50;63.80;;;;;;5054924;28;20051;-58
2023/08/11 08:17:50;;;;;;;28.13;12.60;;;26.70;58.10;;;;;;5055215;28;20556;-58
2023/08/11 08:20:16;;;;;;;22.40;11.52;;;27.00;61.30;;;;;;5055483;28;20064;-58
2023/08/11 08:22:42;;;;;;;23.38;11.13;;;27.10;57.50;;;;;;5054754;28;20530;-58
2023/08/11 08:25:09;;;;;;;23.05;12.50;;;27.00;62.70;;;;;;5055043;28;20478;-58
2023/08/11 08:27:37;;;;;;;20.88;10.75;;;26.80;56.00;;;;;;5055224;28;20025;-58
2023/08/11 08:30:04;;;;;;;18.40;10.40;;;27.10;58.80;;;;;;5055544;28;20025;-58
2023/08/11 08:32:32;;;;;;;17.52;9.60;;;27.30;58.60;;;;;;5055118;28;20483;-58
2023/08/11 08:34:58;;;;;;;17.85;9.05;;;27.70;57.10;;;;;;5055086;28;20115;-58
2023/08/11 08:37:24;;;;;;;19.30;9.18;;;27.90;53.90;;;;;;5054466;28;20096;-58
2023/08/11 08:39:52;;;;;;;18.75;7.85;;;27.70;53.60;;;;;;5054280;28;20029;-58
2023/08/11 08:42:19;;;;;;;16.30;7.63;;;27.50;49.00;;;;;;5054949;28;20558;-58
2023/08/11 08:44:48;;;;;;;18.85;7.88;;;27.30;53.50;;;;;;5054985;28;20028;-58
2023/08/11 08:47:18;;;;;;;12.57;6.35;;;27.60;48.40;;;;;;5054691;28;20021;-58
2023/08/11 08:49:44;;;;;;;24.25;6.30;;;28.10;49.40;;;;;;5054459;28;20024;-58
2023/08/11 08:52:11;;;;;;;12.50;5.88;;;28.10;43.70;;;;;;5054648;28;20367;-58
2023/08/11 08:54:39;;;;;;;21.92;7.78;;;28.20;45.70;;;;;;5054683;28;20084;-58
2023/08/11 08:57:09;;;;;;;12.73;5.78;;;28.30;43.60;;;;;;5054562;28;20028;-58
2023/08/11 08:59:39;;;;;;;13.48;6.50;;;27.60;45.50;;;;;;5054659;28;20431;-58
2023/08/11 09:02:06;;;;;;;11.10;5.90;;;27.60;46.00;;;;;;5054305;28;20040;-58
2023/08/11 09:04:33;;;;;;;12.10;5.70;;;28.20;45.40;;;;;;5054412;28;20025;-58
2023/08/11 09:07:00;;;;;;;16.05;6.78;;;28.30;43.50;;;;;;5054361;28;20055;-58
2023/08/11 09:09:27;;;;;;;12.05;5.47;;;28.00;45.20;;;;;;5054269;28;20035;-58
2023/08/11 09:11:56;;;;;;;7.82;4.55;;;28.20;44.20;;;;;;5065792;28;20469;-58
2023/08/11 09:14:23;;;;;;;8.87;5.00;;;28.70;44.20;;;;;;5074346;28;20035;-58
2023/08/11 09:16:52;;;;;;;10.35;5.22;;;28.70;40.40;;;;;;5074354;28;20025;-58
2023/08/11 09:19:24;;;;;;;7.47;4.70;;;28.50;45.80;;;;;;5073613;28;20111;-59
2023/08/11 09:21:54;;;;;;;20.23;5.90;;;29.00;43.50;;;;;;5068818;28;20021;-58
2023/08/11 09:24:22;;;;;;;10.00;5.35;;;29.10;41.50;;;;;;5053974;28;20058;-59
2023/08/11 09:26:54;;;;;;;8.75;3.67;;;29.10;42.20;;;;;;5054822;28;20029;-58
2023/08/11 09:29:23;;;;;;;10.80;3.78;;;28.80;37.50;;;;;;5054786;28;20085;-58
2023/08/11 09:31:53;;;;;;;10.32;4.50;;;28.80;40.70;;;;;;5054573;28;20092;-58
2023/08/11 09:34:20;;;;;;;3.85;2.70;;;28.80;41.80;;;;;;5052656;28;20024;-58
2023/08/11 09:36:48;;;;;;;7.85;3.28;;;28.80;40.00;;;;;;5053783;28;20482;-58
2023/08/11 09:39:15;;;;;;;9.48;4.07;;;29.50;38.90;;;;;;5054101;28;20029;-58
2023/08/11 09:41:43;;;;;;;9.60;3.55;;;29.90;38.90;;;;;;5053971;28;20029;-58
2023/08/11 09:44:10;;;;;;;9.15;3.72;;;30.10;38.60;;;;;;5054383;28;20033;-58
2023/08/11 09:46:38;;;;;;;10.98;3.63;;;30.60;40.00;;;;;;5053882;28;20040;-58
2023/08/11 09:49:05;;;;;;;6.57;3.17;;;30.80;36.80;;;;;;5053968;28;20033;-58
2023/08/11 09:51:35;;;;;;;8.07;3.33;;;30.80;34.50;;;;;;5058145;28;20029;-58
2023/08/11 09:54:05;;;;;;;14.00;4.05;;;29.90;35.50;;;;;;5058002;28;20039;-59
2023/08/11 09:56:37;;;;;;;6.97;3.30;;;29.90;37.10;;;;;;5058023;28;20108;-58
2023/08/11 09:59:11;;;;;;;5.85;2.97;;;30.30;40.90;;;;;;5058268;28;20275;-58
2023/08/11 10:01:41;;;;;;;3.78;2.45;;;30.70;34.70;;;;;;5058270;28;20025;-58
2023/08/11 10:04:18;;;;;;;6.40;3.00;;;30.70;33.60;;;;;;5058330;28;20036;-58
2023/08/11 10:06:53;;;;;;;11.38;4.00;;;30.50;34.70;;;;;;5058736;28;20059;-58
2023/08/11 10:09:23;;;;;;;4.60;2.53;;;30.40;35.20;;;;;;5058186;28;20049;-58
2023/08/11 10:11:49;;;;;;;;;;;29.80;34.40;;;;;;5057924;28;20052;-57
2023/08/11 10:14:18;;;;;;;11.40;3.45;;;30.10;36.70;;;;;;5057275;28;20088;-57
2023/08/11 10:16:45;;;;;;;9.10;2.47;;;28.60;34.20;;;;;;5057322;28;20375;-57
2023/08/11 10:19:12;;;;;;;6.78;2.42;;;28.90;35.60;;;;;;5056753;28;20166;-58
2023/08/11 10:21:45;;;;;;;5.40;1.80;;;29.80;37.30;;;;;;5057658;28;20040;-58
2023/08/11 10:24:12;;;;;;;3.33;1.67;;;30.70;39.10;;;;;;5057276;28;20546;-58
2023/08/11 10:26:47;;;;;;;5.00;2.22;;;31.50;33.60;;;;;;5057341;28;20136;-58
2023/08/11 10:29:14;;;;;;;2.70;1.60;;;31.30;31.60;;;;;;5057409;28;20021;-58
2023/08/11 10:31:56;;;;;;;3.33;1.52;;;30.70;34.30;;;;;;5057315;28;20115;-58
2023/08/11 10:34:24;;;;;;;2.42;1.83;;;30.40;31.90;;;;;;5057424;28;20025;-58
2023/08/11 10:36:55;;;;;;;7.18;1.98;;;30.40;32.50;;;;;;5057045;28;20417;-58
2023/08/11 10:39:21;;;;;;;6.13;1.83;;;30.40;32.10;;;;;;5055744;28;20045;-58
2023/08/11 10:41:48;;;;;;;3.35;1.75;;;30.20;29.40;;;;;;5057146;28;20021;-58
2023/08/11 10:44:26;;;;;;;4.75;1.88;;;29.10;32.30;;;;;;5055654;28;20025;-58
2023/08/11 10:46:52;;;;;;;5.40;1.70;;;29.80;31.00;;;;;;5057461;28;20064;-58
2023/08/11 10:49:31;;;;;;;3.08;1.70;;;30.20;30.90;;;;;;5056474;28;20479;-58
2023/08/11 10:52:03;;;;;;;3.05;1.73;;;30.70;31.50;;;;;;5056715;28;20040;-58
2023/08/11 10:54:29;;;;;;;3.67;1.50;;;31.20;29.90;;;;;;5057073;28;20028;-58
2023/08/11 10:57:01;;;;;;;4.38;1.55;;;31.10;29.50;;;;;;5056928;28;20044;-58
2023/08/11 10:59:32;;;;;;;4.00;1.50;;;31.30;30.20;;;;;;5056681;28;20360;-57
2023/08/11 11:01:59;;;;;;;4.38;1.45;;;30.90;28.20;;;;;;5055498;28;20035;-58
2023/08/11 11:04:30;;;;;;;5.53;1.70;;;31.30;32.10;;;;;;5056822;28;20120;-58
2023/08/11 11:06:58;;;;;;;5.40;2.00;;;31.90;28.40;;;;;;5056611;28;20052;-58
2023/08/11 11:09:25;;;;;;;3.10;1.60;;;31.60;27.80;;;;;;5056741;28;20032;-58
2023/08/11 11:11:51;;;;;;;3.85;1.90;;;30.90;29.10;;;;;;5067696;28;20052;-58
2023/08/11 11:14:18;;;;;;;9.05;4.28;;;30.00;29.80;;;;;;5076353;28;20028;-58
2023/08/11 11:16:44;;;;;;;5.72;2.20;;;29.70;28.90;;;;;;5076697;28;20039;-58
2023/08/11 11:19:10;;;;;;;9.18;2.00;;;29.30;30.10;;;;;;5076414;28;20115;-59
2023/08/11 11:21:41;;;;;;;9.07;3.10;;;29.80;33.40;;;;;;5076399;28;20068;-58
2023/08/11 11:24:08;;;;;;;4.10;1.40;;;30.30;31.90;;;;;;5076353;28;20434;-58
2023/08/11 11:26:35;;;;;;;5.55;2.55;;;29.80;28.30;;;;;;5076352;28;20016;-58
2023/08/11 11:29:02;;;;;;;10.25;3.15;;;30.20;28.60;;;;;;5076267;28;20493;-58
2023/08/11 11:31:33;;;;;;;2.50;1.85;;;30.90;28.70;;;;;;5070497;28;20386;-58
2023/08/11 11:33:59;;;;;;;8.90;2.58;;;31.50;29.40;;;;;;5056073;28;20040;-58
2023/08/11 11:36:26;;;;;;;4.43;2.20;;;32.00;28.30;;;;;;5056226;28;20044;-58
2023/08/11 11:38:52;;;;;;;8.50;3.88;;;31.70;28.40;;;;;;5055771;28;20037;-58
2023/08/11 11:41:19;;;;;;;10.23;4.10;;;31.60;29.30;;;;;;5055720;28;20051;-58
2023/08/11 11:43:50;;;;;;;9.27;3.15;;;31.30;27.30;;;;;;5056065;28;20056;-58
2023/08/11 11:46:30;;;;;;;3.65;1.92;;;31.00;28.80;;;;;;5056114;28;20104;-58
2023/08/11 11:48:57;;;;;;;6.28;2.08;;;30.00;30.00;;;;;;5055897;28;20031;-58
2023/08/11 11:51:26;;;;;;;4.78;1.83;;;30.20;30.60;;;;;;5056140;28;20076;-58
2023/08/11 11:53:55;;;;;;;2.78;1.85;;;30.00;28.10;;;;;;5055758;28;20037;-58
2023/08/11 11:56:21;;;;;;;3.83;1.65;;;30.50;28.40;;;;;;5055532;28;20059;-58
2023/08/11 11:58:49;;;;;;;4.60;1.95;;;30.90;28.30;;;;;;5055550;28;20044;-58
2023/08/11 12:01:19;;;;;;;4.85;1.88;;;30.30;25.50;;;;;;5055626;28;20025;-58
2023/08/11 12:03:47;;;;;;;2.75;1.48;;;31.10;28.50;;;;;;5055479;28;20055;-58
2023/08/11 12:06:13;;;;;;;11.75;3.53;;;31.30;26.50;;;;;;5055419;28;20024;-58
2023/08/11 12:08:43;;;;;;;8.73;2.17;;;31.50;26.70;;;;;;5055280;28;20032;-58
2023/08/11 12:11:17;;;;;;;10.63;3.97;;;31.60;26.70;;;;;;5060741;28;20024;-58
2023/08/11 12:13:44;;;;;;;8.73;3.05;;;31.40;26.50;;;;;;5053163;28;20111;-58
2023/08/11 12:16:14;;;;;;;4.13;1.92;;;31.20;24.20;;;;;;5055188;28;20559;-58
2023/08/11 12:18:41;;;;;;;3.70;1.90;;;31.40;25.00;;;;;;5055289;28;20109;-58
2023/08/11 12:21:09;;;;;;;3.30;1.45;;;32.10;25.30;;;;;;5055034;28;20495;-58
2023/08/11 12:23:37;;;;;;;5.03;1.70;;;31.90;25.10;;;;;;5055009;28;20040;-58
2023/08/11 12:26:04;;;;;;;3.00;1.58;;;32.10;24.60;;;;;;5055018;28;20036;-58
2023/08/11 12:28:31;;;;;;;1.90;1.40;;;31.80;24.20;;;;;;5055269;28;20048;-58
2023/08/11 12:30:57;;;;;;;5.07;2.10;;;31.60;26.00;;;;;;5055040;28;20047;-58
2023/08/11 12:33:23;;;;;;;3.33;1.85;;;31.80;23.30;;;;;;5055206;28;20025;-58
2023/08/11 12:35:49;;;;;;;9.57;2.00;;;31.40;23.40;;;;;;5054911;28;20112;-58